Time;durP1;ratioP1;P1;durP2;ratioP2;P2;SDS_P1;SDS_P2;PMS_P1;PMS_P2;Temp;Humidity;BMP_temperature;BMP_pressure;BME280_temperature;BME280_humidity;BME280_pressure;Samples;Min_cycle;Max_cycle;Signal;HPM_P1;HPM_P2
2022/10/16 00:01:53;;;;;;;16.40;12.60;;;;;;;13.60;77.38;100597.69;88763;1284;22014;-76
2022/10/16 00:04:03;;;;;;;17.30;12.50;;;;;;;13.61;77.28;100599.17;88750;1299;22685;-76
2022/10/16 00:06:12;;;;;;;15.90;13.40;;;;;;;13.62;77.27;100597.89;88514;1297;22018;-76
2022/10/16 00:08:21;;;;;;;15.20;12.40;;;;;;;13.63;77.23;100600.65;88497;1304;22176;-76
2022/10/16 00:10:30;;;;;;;17.00;11.80;;;;;;;13.65;77.25;100596.20;88760;1295;22149;-76
2022/10/16 00:12:39;;;;;;;19.10;12.70;;;;;;;13.66;77.18;100594.05;88506;1307;22531;-76
2022/10/16 00:14:47;;;;;;;14.10;11.60;;;;;;;13.67;77.11;100595.94;88495;1308;22030;-76
2022/10/16 00:16:57;;;;;;;12.90;11.60;;;;;;;13.67;77.06;100596.62;88767;1285;22019;-76
2022/10/16 00:19:06;;;;;;;15.90;13.00;;;;;;;13.69;77.01;100595.84;88402;1307;22094;-76
2022/10/16 00:21:17;;;;;;;15.50;11.80;;;;;;;13.71;77.06;100594.73;88781;1286;22609;-76
2022/10/16 00:23:26;;;;;;;14.00;12.00;;;;;;;13.72;77.04;100591.34;88615;1305;22087;-76
2022/10/16 00:25:36;;;;;;;12.50;10.70;;;;;;;13.73;77.03;100594.77;88500;1292;22095;-76
2022/10/16 00:27:44;;;;;;;12.30;10.90;;;;;;;13.74;77.05;100594.22;88749;1299;22018;-76
2022/10/16 00:29:55;;;;;;;13.50;12.00;;;;;;;13.74;77.04;100595.78;88459;1310;22082;-76
2022/10/16 00:32:04;;;;;;;16.90;11.70;;;;;;;13.75;77.09;100591.02;88493;1286;22218;-76
2022/10/16 00:34:13;;;;;;;16.70;11.60;;;;;;;13.75;77.20;100591.16;88486;1306;22066;-76
2022/10/16 00:36:23;;;;;;;18.40;10.70;;;;;;;13.75;77.24;100593.79;88755;1300;22025;-76
2022/10/16 00:38:32;;;;;;;13.10;10.60;;;;;;;13.76;77.26;100595.34;88474;1305;22060;-76
2022/10/16 00:40:41;;;;;;;18.30;10.70;;;;;;;13.76;77.36;100600.94;88488;1307;22610;-76
2022/10/16 00:42:50;;;;;;;14.90;9.70;;;;;;;13.76;77.28;100602.34;88619;1299;22263;-75
2022/10/16 00:44:59;;;;;;;13.00;11.00;;;;;;;13.77;77.38;100604.40;88765;1300;22064;-75
2022/10/16 00:47:10;;;;;;;14.10;10.50;;;;;;;13.77;77.41;100608.59;88743;1300;22026;-75
2022/10/16 00:49:21;;;;;;;14.10;10.10;;;;;;;13.78;77.53;100608.58;88496;1307;22091;-75
2022/10/16 00:51:31;;;;;;;11.80;10.00;;;;;;;13.77;77.55;100605.77;88620;1299;22300;-77
2022/10/16 00:53:39;;;;;;;11.70;9.30;;;;;;;13.78;77.52;100607.14;88758;1286;22026;-76
2022/10/16 00:55:48;;;;;;;15.30;10.10;;;;;;;13.79;77.54;100610.43;88745;1287;22556;-76
2022/10/16 00:58:00;;;;;;;15.50;9.70;;;;;;;13.79;77.46;100609.03;88467;1301;22087;-76
2022/10/16 01:00:13;;;;;;;17.60;10.60;;;;;;;13.80;77.43;100606.19;88771;1300;22165;-76
2022/10/16 01:02:22;;;;;;;12.40;10.00;;;;;;;13.80;77.38;100612.86;88763;1296;22035;-76
2022/10/16 01:04:32;;;;;;;11.70;10.50;;;;;;;13.81;77.41;100617.73;88471;1306;22094;-76
2022/10/16 01:06:47;;;;;;;14.00;10.40;;;;;;;13.81;77.56;100621.04;88401;1302;22116;-76
2022/10/16 01:09:07;;;;;;;12.60;9.00;;;;;;;13.82;77.63;100620.16;88494;1306;22057;-76
2022/10/16 01:11:21;;;;;;;14.80;10.20;;;;;;;13.82;77.60;100616.77;88764;1299;22037;-76
2022/10/16 01:13:34;;;;;;;12.50;9.70;;;;;;;13.83;77.73;100617.06;88495;1302;22102;-76
2022/10/16 01:15:47;;;;;;;12.20;9.50;;;;;;;13.84;77.67;100619.84;88774;1288;22052;-76
2022/10/16 01:18:01;;;;;;;13.20;9.70;;;;;;;13.85;77.71;100620.84;88419;1307;22302;-76
2022/10/16 01:20:18;;;;;;;13.30;10.20;;;;;;;13.85;77.58;100616.64;88756;1287;22681;-76
2022/10/16 01:22:27;;;;;;;14.10;9.90;;;;;;;13.85;77.62;100618.03;88778;1299;22026;-76
2022/10/16 01:24:40;;;;;;;14.50;10.30;;;;;;;13.85;77.57;100618.03;88411;1307;22101;-76
2022/10/16 01:27:15;;;;;;;11.80;10.00;;;;;;;13.85;77.63;100622.95;88492;1299;22044;-76
2022/10/16 01:29:26;;;;;;;10.20;9.00;;;;;;;13.85;77.74;100623.48;88625;1292;22718;-76
2022/10/16 01:31:39;;;;;;;12.50;10.40;;;;;;;13.85;77.84;100628.91;88481;1306;22772;-76
2022/10/16 01:33:52;;;;;;;11.50;9.80;;;;;;;13.86;77.84;100633.96;88515;1299;22635;-76
2022/10/16 01:36:07;;;;;;;14.10;10.10;;;;;;;13.85;77.84;100632.77;88487;1302;22132;-76
2022/10/16 01:38:18;;;;;;;14.80;10.20;;;;;;;13.85;77.86;100632.44;88757;1294;22127;-76
2022/10/16 01:40:28;;;;;;;11.40;10.10;;;;;;;13.85;77.93;100636.27;88493;1305;22059;-75
2022/10/16 01:42:40;;;;;;;13.30;10.50;;;;;;;13.86;77.89;100633.95;88762;1291;22184;-75
2022/10/16 01:44:49;;;;;;;15.60;10.20;;;;;;;13.86;77.96;100631.68;88488;1306;22151;-75
2022/10/16 01:46:58;;;;;;;15.80;10.40;;;;;;;13.86;77.88;100634.84;88741;1294;22002;-75
2022/10/16 01:49:06;;;;;;;17.80;10.40;;;;;;;13.86;77.85;100632.92;88760;1299;22036;-75
2022/10/16 01:51:16;;;;;;;13.10;9.90;;;;;;;13.85;77.87;100631.36;88480;1306;22042;-75
2022/10/16 01:53:25;;;;;;;12.40;10.60;;;;;;;13.84;77.87;100629.11;88509;1304;22091;-75
2022/10/16 01:55:37;;;;;;;12.30;10.50;;;;;;;13.84;77.75;100625.27;88762;1294;22018;-75
2022/10/16 01:57:47;;;;;;;14.30;11.80;;;;;;;13.84;77.70;100619.84;88481;1305;22078;-76
2022/10/16 01:59:59;;;;;;;15.00;11.10;;;;;;;13.84;77.61;100624.05;88766;1295;22022;-76
2022/10/16 02:02:09;;;;;;;14.20;11.60;;;;;;;13.83;77.57;100628.13;88761;1299;22068;-76
2022/10/16 02:04:18;;;;;;;;;;;;;;;13.82;77.53;100631.33;88751;1281;22244;-76
2022/10/16 02:06:29;;;;;;;13.80;10.20;;;;;;;13.78;77.71;100632.06;88753;1287;22021;-76
2022/10/16 02:08:38;;;;;;;14.10;11.40;;;;;;;13.77;77.69;100632.99;88759;1299;22102;-76
2022/10/16 02:10:48;;;;;;;14.20;9.90;;;;;;;13.75;77.61;100632.00;88482;1302;22074;-76
2022/10/16 02:13:00;;;;;;;15.20;11.30;;;;;;;13.75;77.63;100626.42;88511;1307;22653;-76
2022/10/16 02:15:10;;;;;;;17.20;11.10;;;;;;;13.74;77.66;100625.06;88747;1299;22032;-76
2022/10/16 02:17:21;;;;;;;17.60;11.10;;;;;;;13.73;77.64;100622.49;88490;1304;22046;-76
2022/10/16 02:19:30;;;;;;;18.80;11.80;;;;;;;13.72;77.59;100622.20;88743;1291;22046;-76
2022/10/16 02:21:42;;;;;;;14.90;11.50;;;;;;;13.71;77.67;100621.17;88413;1301;22194;-76
2022/10/16 02:23:55;;;;;;;13.60;11.70;;;;;;;13.71;77.61;100622.94;88432;1306;22075;-76
2022/10/16 02:26:04;;;;;;;13.20;11.60;;;;;;;13.69;77.60;100623.20;88692;1278;22627;-76
2022/10/16 02:28:17;;;;;;;15.80;12.00;;;;;;;13.66;77.57;100623.50;88420;1307;21999;-76
2022/10/16 02:30:28;;;;;;;20.00;12.30;;;;;;;13.64;77.63;100625.70;88456;1306;22563;-76
2022/10/16 02:32:40;;;;;;;19.80;13.20;;;;;;;13.63;77.63;100625.92;88621;1299;22746;-76
2022/10/16 02:34:49;;;;;;;14.00;12.60;;;;;;;13.63;77.61;100628.03;88443;1305;22074;-76
2022/10/16 02:36:58;;;;;;;14.10;11.00;;;;;;;13.62;77.59;100626.13;88671;1284;22018;-75
2022/10/16 02:39:07;;;;;;;15.70;12.90;;;;;;;13.62;77.64;100628.21;88394;1307;22132;-75
2022/10/16 02:41:16;;;;;;;17.50;11.90;;;;;;;13.62;77.72;100631.23;88688;1291;22025;-75
2022/10/16 02:43:25;;;;;;;23.20;13.20;;;;;;;13.61;77.71;100628.66;88425;1307;22143;-75
2022/10/16 02:45:34;;;;;;;18.70;12.90;;;;;;;13.60;77.70;100634.81;88453;1306;22136;-75
2022/10/16 02:47:43;;;;;;;15.00;11.10;;;;;;;13.59;77.72;100633.62;88468;1306;21962;-75
2022/10/16 02:49:52;;;;;;;18.00;12.90;;;;;;;13.59;77.74;100636.98;88664;1287;22075;-75
2022/10/16 02:52:01;;;;;;;16.20;12.90;;;;;;;13.58;77.69;100638.77;88609;1299;22705;-75
2022/10/16 02:54:10;;;;;;;18.80;13.80;;;;;;;13.57;77.74;100641.63;88456;1291;22220;-75
2022/10/16 02:56:19;;;;;;;18.30;13.10;;;;;;;13.57;77.69;100642.35;88450;1305;22064;-75
2022/10/16 02:58:28;;;;;;;15.50;11.90;;;;;;;13.55;77.73;100645.20;88630;1299;22757;-75
2022/10/16 03:00:36;;;;;;;15.50;13.60;;;;;;;13.55;77.77;100644.17;88461;1306;22131;-75
2022/10/16 03:02:46;;;;;;;18.80;14.30;;;;;;;13.55;77.88;100647.85;88466;1306;22060;-75
2022/10/16 03:04:55;;;;;;;16.50;12.90;;;;;;;13.55;77.80;100653.11;88457;1306;22532;-75
2022/10/16 03:07:04;;;;;;;17.00;13.20;;;;;;;13.55;77.80;100651.01;88619;1299;22095;-75
2022/10/16 03:09:13;;;;;;;18.30;12.40;;;;;;;13.55;77.90;100652.05;88446;1304;22679;-75
2022/10/16 03:11:22;;;;;;;20.70;13.80;;;;;;;13.56;77.80;100655.89;88683;1298;22080;-75
2022/10/16 03:13:31;;;;;;;15.50;12.70;;;;;;;13.56;77.90;100661.86;88683;1280;21943;-75
2022/10/16 03:15:40;;;;;;;17.70;12.70;;;;;;;13.55;77.94;100662.05;88440;1298;22113;-75
2022/10/16 03:17:49;;;;;;;17.40;13.20;;;;;;;13.55;77.89;100664.70;88464;1299;22062;-75
2022/10/16 03:19:58;;;;;;;19.30;14.10;;;;;;;13.55;77.84;100663.81;88672;1299;22051;-75
2022/10/16 03:22:07;;;;;;;17.20;13.00;;;;;;;13.55;77.77;100662.23;88471;1306;22048;-75
2022/10/16 03:24:16;;;;;;;18.90;14.20;;;;;;;13.55;77.71;100663.80;88490;1306;22176;-76
2022/10/16 03:26:25;;;;;;;17.00;13.10;;;;;;;13.55;77.73;100665.23;88725;1288;22020;-76
2022/10/16 03:28:34;;;;;;;17.50;13.70;;;;;;;13.54;77.77;100665.44;88726;1299;22048;-76
2022/10/16 03:30:43;;;;;;;17.10;14.30;;;;;;;13.53;77.71;100666.90;88594;1288;22782;-76
2022/10/16 03:32:53;;;;;;;20.10;13.90;;;;;;;13.52;77.70;100668.70;88772;1299;22182;-76
2022/10/16 03:35:02;;;;;;;15.20;13.60;;;;;;;13.51;77.72;100665.93;88749;1298;22173;-76
2022/10/16 03:37:11;;;;;;;17.40;14.20;;;;;;;13.50;77.70;100666.13;88498;1306;22036;-76
2022/10/16 03:39:20;;;;;;;25.20;14.30;;;;;;;13.49;77.80;100663.55;88502;1301;22080;-76
2022/10/16 03:41:29;;;;;;;19.40;14.30;;;;;;;13.48;77.72;100670.62;88477;1306;22056;-76
2022/10/16 03:43:38;;;;;;;18.60;13.90;;;;;;;13.47;77.74;100671.56;88494;1306;22085;-76
2022/10/16 03:45:47;;;;;;;18.30;13.60;;;;;;;13.46;77.75;100675.27;88481;1305;22084;-76
2022/10/16 03:47:56;;;;;;;18.00;14.70;;;;;;;13.44;77.73;100675.88;88767;1287;22090;-76
2022/10/16 03:50:06;;;;;;;19.60;14.40;;;;;;;13.42;77.73;100678.23;88492;1305;22683;-76
2022/10/16 03:52:15;;;;;;;19.50;14.20;;;;;;;13.39;77.62;100674.86;88759;1287;22033;-76
2022/10/16 03:54:24;;;;;;;19.80;14.70;;;;;;;13.34;77.71;100676.85;88769;1287;22012;-76
2022/10/16 03:56:33;;;;;;;18.40;14.80;;;;;;;13.29;77.83;100678.30;88475;1305;22053;-75
2022/10/16 03:58:42;;;;;;;22.70;14.90;;;;;;;13.23;77.84;100684.52;88760;1288;22234;-75
2022/10/16 04:00:51;;;;;;;16.40;14.70;;;;;;;13.17;77.80;100685.98;88741;1281;22017;-75
2022/10/16 04:03:00;;;;;;;17.70;15.80;;;;;;;13.10;77.82;100688.73;88503;1299;22105;-75
2022/10/16 04:05:10;;;;;;;20.20;14.80;;;;;;;13.03;78.04;100688.33;88403;1301;22765;-75
2022/10/16 04:07:19;;;;;;;20.60;16.10;;;;;;;12.96;78.14;100687.77;88754;1299;22700;-75
2022/10/16 04:09:28;;;;;;;18.10;14.50;;;;;;;12.90;78.28;100687.48;88751;1285;22033;-75
2022/10/16 04:11:38;;;;;;;24.80;14.90;;;;;;;12.84;78.41;100681.80;88485;1301;22087;-75
2022/10/16 04:13:47;;;;;;;18.70;15.30;;;;;;;12.79;78.63;100681.81;88786;1283;21936;-75
2022/10/16 04:15:56;;;;;;;21.20;15.10;;;;;;;12.77;78.72;100684.20;88479;1305;22119;-75
2022/10/16 04:18:05;;;;;;;21.30;14.70;;;;;;;12.75;78.95;100689.69;88615;1298;22664;-75
2022/10/16 04:20:14;;;;;;;18.20;13.40;;;;;;;12.74;78.97;100689.06;88753;1288;22038;-75
2022/10/16 04:22:23;;;;;;;19.40;13.80;;;;;;;12.72;79.25;100687.20;88777;1293;22106;-75
2022/10/16 04:24:31;;;;;;;19.80;14.60;;;;;;;12.72;79.37;100691.57;88480;1306;22067;-75
2022/10/16 04:26:41;;;;;;;18.10;14.60;;;;;;;12.72;79.38;100693.17;88396;1307;22079;-75
2022/10/16 04:28:51;;;;;;;22.00;15.20;;;;;;;12.70;79.26;100692.36;88497;1306;22078;-75
2022/10/16 04:31:00;;;;;;;20.70;14.40;;;;;;;12.66;79.22;100696.38;88768;1298;22093;-75
2022/10/16 04:33:11;;;;;;;19.50;14.50;;;;;;;12.59;79.36;100698.91;88497;1299;22046;-75
2022/10/16 04:35:20;;;;;;;17.00;14.80;;;;;;;12.52;79.59;100700.96;88777;1288;22030;-75
2022/10/16 04:37:29;;;;;;;21.50;14.90;;;;;;;12.46;79.58;100701.42;88490;1305;22085;-75
2022/10/16 04:39:38;;;;;;;21.50;15.40;;;;;;;12.39;79.82;100696.06;88753;1287;22018;-75
2022/10/16 04:41:47;;;;;;;20.10;14.10;;;;;;;12.35;79.89;100695.02;88751;1287;22632;-75
2022/10/16 04:43:56;;;;;;;20.40;15.90;;;;;;;12.28;79.95;100695.62;88396;1307;22114;-75
2022/10/16 04:46:06;;;;;;;20.60;14.00;;;;;;;12.23;80.15;100698.30;88610;1287;22111;-75
2022/10/16 04:48:15;;;;;;;19.90;14.00;;;;;;;12.17;80.51;100705.17;88491;1306;22058;-75
2022/10/16 04:50:24;;;;;;;20.40;14.70;;;;;;;12.13;80.63;100707.93;88410;1307;22099;-75
2022/10/16 04:52:33;;;;;;;24.70;14.80;;;;;;;12.09;80.76;100711.59;88604;1284;22317;-75
2022/10/16 04:54:44;;;;;;;21.10;15.10;;;;;;;12.06;80.83;100712.96;88477;1298;22394;-75
2022/10/16 04:56:54;;;;;;;18.70;15.50;;;;;;;12.01;80.92;100713.48;88622;1290;22787;-76
2022/10/16 04:59:03;;;;;;;21.40;16.10;;;;;;;12.00;81.21;100712.14;88510;1301;22717;-76
2022/10/16 05:01:12;;;;;;;19.50;15.30;;;;;;;12.00;81.39;100714.21;88733;1299;22728;-76
2022/10/16 05:03:21;;;;;;;22.00;15.70;;;;;;;12.00;81.59;100711.95;88616;1290;22090;-76
2022/10/16 05:05:30;;;;;;;21.40;16.20;;;;;;;11.99;81.70;100715.50;88488;1306;22060;-76
2022/10/16 05:07:39;;;;;;;18.50;15.50;;;;;;;11.98;81.53;100717.30;88503;1306;22082;-76
2022/10/16 05:09:48;;;;;;;22.40;16.70;;;;;;;11.96;81.99;100726.61;88740;1299;22010;-76
2022/10/16 05:11:57;;;;;;;17.90;14.00;;;;;;;11.96;81.96;100734.49;88493;1306;22026;-76
2022/10/16 05:14:07;;;;;;;23.30;14.50;;;;;;;11.96;82.17;100733.26;88486;1306;22189;-76
2022/10/16 05:16:16;;;;;;;20.80;14.40;;;;;;;11.97;82.26;100739.35;88506;1302;22662;-76
2022/10/16 05:18:25;;;;;;;20.20;14.80;;;;;;;11.99;82.36;100741.03;88500;1306;22158;-76
2022/10/16 05:20:33;;;;;;;19.20;14.30;;;;;;;12.00;82.27;100738.02;88509;1283;22116;-76
2022/10/16 05:22:43;;;;;;;20.00;14.90;;;;;;;12.01;82.24;100736.04;88490;1306;22070;-76
2022/10/16 05:24:52;;;;;;;22.10;15.30;;;;;;;12.00;82.45;100733.10;88749;1295;22023;-76
2022/10/16 05:27:01;;;;;;;18.20;14.10;;;;;;;12.02;82.36;100734.09;88754;1287;22023;-76
2022/10/16 05:29:12;;;;;;;22.60;15.60;;;;;;;12.03;82.51;100730.90;88769;1297;22039;-76
2022/10/16 05:31:21;;;;;;;15.90;13.90;;;;;;;12.04;82.59;100735.58;88480;1306;22057;-76
2022/10/16 05:33:31;;;;;;;19.50;15.30;;;;;;;12.05;82.63;100731.86;88781;1298;22855;-76
2022/10/16 05:35:40;;;;;;;19.40;15.70;;;;;;;12.06;82.75;100731.99;88753;1287;22033;-76
2022/10/16 05:37:49;;;;;;;20.90;15.00;;;;;;;12.08;82.81;100727.05;88775;1287;21998;-76
2022/10/16 05:39:58;;;;;;;25.50;15.60;;;;;;;12.10;82.70;100729.75;88762;1287;22696;-76
2022/10/16 05:42:07;;;;;;;20.90;14.90;;;;;;;12.11;82.73;100730.76;88494;1306;22037;-76
2022/10/16 05:44:16;;;;;;;18.60;14.70;;;;;;;12.12;82.85;100734.58;88749;1299;22697;-76
2022/10/16 05:46:25;;;;;;;23.00;15.40;;;;;;;12.14;82.82;100735.02;88748;1288;22060;-76
2022/10/16 05:48:34;;;;;;;22.00;14.60;;;;;;;12.18;82.94;100738.38;88770;1279;22017;-76
2022/10/16 05:50:42;;;;;;;19.90;15.40;;;;;;;12.21;82.89;100738.61;88648;1289;22068;-76
2022/10/16 05:52:51;;;;;;;18.30;15.10;;;;;;;12.23;82.93;100742.38;88491;1305;22061;-76
2022/10/16 05:55:00;;;;;;;17.10;14.40;;;;;;;12.26;82.93;100750.12;88480;1301;22040;-76
2022/10/16 05:57:08;;;;;;;18.00;14.60;;;;;;;12.27;82.90;100752.35;88395;1303;22085;-76
2022/10/16 05:59:17;;;;;;;22.50;16.30;;;;;;;12.29;82.85;100754.55;88496;1297;22067;-76
2022/10/16 06:01:26;;;;;;;19.20;15.50;;;;;;;12.31;82.71;100753.58;88505;1298;22065;-76
2022/10/16 06:03:35;;;;;;;17.30;13.30;;;;;;;12.38;83.01;100751.55;88508;1306;22052;-76
2022/10/16 06:05:44;;;;;;;15.80;13.30;;;;;;;12.48;83.10;100750.50;88497;1305;22101;-76
2022/10/16 06:07:53;;;;;;;17.60;13.60;;;;;;;12.52;82.99;100751.38;88743;1287;22155;-76
2022/10/16 06:10:01;;;;;;;19.40;15.30;;;;;;;12.55;82.94;100757.19;88759;1299;22088;-76
2022/10/16 06:12:10;;;;;;;21.00;15.20;;;;;;;12.61;82.91;100761.49;88517;1292;22052;-76
2022/10/16 06:14:19;;;;;;;20.00;14.60;;;;;;;12.77;82.75;100763.67;88509;1300;22060;-76
2022/10/16 06:16:27;;;;;;;21.60;14.50;;;;;;;12.84;82.51;100767.21;88494;1305;22060;-76
2022/10/16 06:18:36;;;;;;;22.30;15.40;;;;;;;12.87;82.35;100771.29;88752;1290;22117;-76
2022/10/16 06:20:45;;;;;;;18.70;14.80;;;;;;;12.92;82.32;100768.31;88774;1289;22024;-76
2022/10/16 06:22:54;;;;;;;18.00;13.60;;;;;;;12.96;82.16;100768.67;88746;1287;22002;-76
2022/10/16 06:25:02;;;;;;;20.70;15.50;;;;;;;13.00;82.05;100767.10;88600;1299;22626;-76
2022/10/16 06:27:11;;;;;;;17.30;13.70;;;;;;;13.03;81.96;100765.20;88764;1283;22043;-76
2022/10/16 06:29:20;;;;;;;16.40;13.20;;;;;;;13.08;81.95;100771.48;88734;1299;22027;-76
2022/10/16 06:31:30;;;;;;;16.60;13.70;;;;;;;13.12;81.74;100775.85;88493;1306;22613;-76
2022/10/16 06:33:39;;;;;;;20.10;15.10;;;;;;;13.17;81.71;100776.72;88507;1301;22061;-76
2022/10/16 06:35:48;;;;;;;15.50;13.20;;;;;;;13.23;81.70;100778.96;88749;1299;22322;-76
2022/10/16 06:37:58;;;;;;;17.80;14.50;;;;;;;13.30;81.60;100782.86;88487;1306;22095;-74
2022/10/16 06:40:08;;;;;;;18.00;13.30;;;;;;;13.38;81.63;100782.51;88751;1287;22073;-75
2022/10/16 06:42:15;;;;;;;;;;;;;;;13.46;81.45;100787.60;88768;1299;22251;-75
2022/10/16 06:44:24;;;;;;;15.50;12.00;;;;;;;13.50;81.44;100784.63;88494;1302;22077;-75
2022/10/16 06:46:33;;;;;;;16.70;12.50;;;;;;;13.58;81.34;100785.66;88762;1299;22067;-76
2022/10/16 06:48:42;;;;;;;16.60;14.20;;;;;;;13.67;81.11;100779.68;88764;1281;22036;-75
2022/10/16 06:50:59;;;;;;;14.10;12.60;;;;;;;13.75;80.87;100786.13;88751;1280;22026;-75
2022/10/16 06:53:08;;;;;;;15.30;12.40;;;;;;;13.87;80.89;100782.81;88506;1304;22051;-75
2022/10/16 06:55:18;;;;;;;21.70;14.10;;;;;;;13.99;80.62;100783.50;88769;1299;22050;-75
2022/10/16 06:57:27;;;;;;;16.90;13.30;;;;;;;14.15;80.48;100784.01;88510;1305;22165;-75
2022/10/16 06:59:35;;;;;;;18.60;13.40;;;;;;;14.37;80.26;100788.77;88763;1298;22028;-75
2022/10/16 07:01:46;;;;;;;17.50;13.60;;;;;;;14.57;79.91;100789.04;88750;1286;22059;-75
2022/10/16 07:03:55;;;;;;;15.00;11.80;;;;;;;14.73;79.39;100793.20;88633;1299;22110;-75
2022/10/16 07:06:06;;;;;;;18.90;13.50;;;;;;;14.85;78.92;100798.06;88498;1304;22072;-75
2022/10/16 07:08:15;;;;;;;15.40;13.10;;;;;;;14.92;78.07;100795.41;88762;1287;22028;-75
2022/10/16 07:10:24;;;;;;;16.00;12.70;;;;;;;14.96;77.73;100793.45;88498;1306;22068;-75
2022/10/16 07:12:33;;;;;;;16.30;12.20;;;;;;;14.98;77.26;100802.70;88480;1298;22107;-76
2022/10/16 07:14:42;;;;;;;14.30;11.30;;;;;;;14.96;76.94;100805.43;88479;1306;22156;-75
2022/10/16 07:16:51;;;;;;;15.00;12.90;;;;;;;14.94;76.86;100809.20;88751;1299;22054;-75
2022/10/16 07:19:01;;;;;;;14.60;11.60;;;;;;;14.94;76.51;100807.10;88629;1299;22056;-75
2022/10/16 07:21:12;;;;;;;16.50;11.20;;;;;;;14.91;76.39;100806.36;88733;1286;22007;-75
2022/10/16 07:23:21;;;;;;;15.40;11.80;;;;;;;14.90;76.43;100807.66;88617;1299;22213;-75
2022/10/16 07:25:30;;;;;;;14.80;11.90;;;;;;;14.89;76.38;100810.14;88473;1290;22076;-75
2022/10/16 07:27:38;;;;;;;19.00;12.50;;;;;;;14.91;76.54;100810.93;88485;1298;22044;-75
2022/10/16 07:29:47;;;;;;;15.80;12.90;;;;;;;14.93;76.39;100805.41;88750;1285;22107;-75
2022/10/16 07:31:56;;;;;;;17.10;12.00;;;;;;;14.96;76.48;100804.70;88633;1299;22089;-76
2022/10/16 07:34:05;;;;;;;14.00;11.50;;;;;;;15.03;76.48;100800.38;88495;1305;22069;-76
2022/10/16 07:36:14;;;;;;;16.30;12.90;;;;;;;15.11;76.53;100796.80;88612;1299;22638;-76
2022/10/16 07:38:23;;;;;;;16.60;11.50;;;;;;;15.21;76.29;100786.41;88519;1306;22061;-75
2022/10/16 07:40:32;;;;;;;15.50;12.40;;;;;;;15.88;78.58;100782.41;88506;1298;22062;-75
2022/10/16 07:42:42;;;;;;;21.50;12.40;;;;;;;16.98;78.67;100782.27;88744;1299;22498;-75
2022/10/16 07:44:51;;;;;;;12.70;11.10;;;;;;;18.17;77.27;100786.55;88770;1287;22024;-75
2022/10/16 07:47:00;;;;;;;12.00;10.50;;;;;;;19.32;74.60;100801.33;88634;1299;21842;-75
2022/10/16 07:49:09;;;;;;;12.40;11.10;;;;;;;20.11;69.99;100799.31;88300;1306;282843;-75
2022/10/16 07:51:19;;;;;;;11.50;10.40;;;;;;;20.59;66.23;100788.05;88521;1295;22064;-75
2022/10/16 07:53:26;;;;;;;;;;;;;;;20.99;64.99;100793.77;88420;1302;22880;-75
2022/10/16 07:55:35;;;;;;;15.50;10.40;;;;;;;21.28;63.47;100796.89;88651;1299;22086;-75
2022/10/16 07:57:44;;;;;;;10.90;9.10;;;;;;;21.48;62.01;100798.92;88511;1297;21721;-75
2022/10/16 07:59:54;;;;;;;14.60;9.90;;;;;;;21.47;61.24;100795.81;88500;1291;22144;-75
2022/10/16 08:02:02;;;;;;;12.80;10.40;;;;;;;21.32;60.49;100801.94;88494;1298;22071;-76
2022/10/16 08:04:11;;;;;;;13.30;9.80;;;;;;;21.14;59.68;100808.45;88477;1306;22076;-76
2022/10/16 08:06:20;;;;;;;12.10;9.90;;;;;;;20.95;59.86;100817.31;88766;1288;21931;-76
2022/10/16 08:08:29;;;;;;;13.40;10.70;;;;;;;20.76;59.17;100821.88;88489;1301;22055;-75
2022/10/16 08:10:38;;;;;;;11.40;10.20;;;;;;;20.55;59.28;100820.77;88481;1301;22083;-75
2022/10/16 08:12:47;;;;;;;10.90;9.70;;;;;;;20.39;59.48;100819.23;88766;1282;21944;-75
2022/10/16 08:14:56;;;;;;;11.10;10.00;;;;;;;20.25;59.74;100819.69;88750;1294;22175;-75
2022/10/16 08:17:04;;;;;;;13.60;9.80;;;;;;;20.15;60.11;100820.27;88747;1294;22018;-75
2022/10/16 08:19:16;;;;;;;12.10;10.70;;;;;;;20.08;60.40;100823.05;88489;1306;22052;-75
2022/10/16 08:21:26;;;;;;;11.20;10.00;;;;;;;20.03;60.71;100824.13;88486;1301;22293;-75
2022/10/16 08:23:35;;;;;;;13.90;11.10;;;;;;;19.97;60.43;100823.64;88758;1288;22035;-75
2022/10/16 08:25:44;;;;;;;11.10;10.00;;;;;;;19.89;60.83;100821.02;88737;1287;22048;-75
2022/10/16 08:27:53;;;;;;;11.20;9.80;;;;;;;19.89;61.10;100826.53;88496;1306;22468;-75
2022/10/16 08:30:02;;;;;;;12.10;10.00;;;;;;;19.90;61.35;100830.36;88487;1305;22043;-75
2022/10/16 08:32:11;;;;;;;10.90;9.90;;;;;;;19.92;61.22;100837.13;88519;1304;22098;-75
2022/10/16 08:34:20;;;;;;;10.80;9.70;;;;;;;19.93;61.28;100840.79;88769;1291;21943;-75
2022/10/16 08:36:29;;;;;;;12.30;9.90;;;;;;;19.92;61.03;100841.40;88772;1299;22062;-75
2022/10/16 08:38:37;;;;;;;11.00;9.10;;;;;;;19.93;61.66;100841.52;88756;1287;22066;-75
2022/10/16 08:40:46;;;;;;;12.30;10.30;;;;;;;19.98;61.94;100838.80;88616;1299;22107;-75
2022/10/16 08:43:13;;;;;;;13.20;8.90;;;;;;;20.05;61.73;100837.23;88782;1299;22052;-75
2022/10/16 08:45:31;;;;;;;9.60;8.70;;;;;;;20.09;61.46;100836.77;88742;1284;22013;-75
2022/10/16 08:47:49;;;;;;;9.80;8.80;;;;;;;20.07;61.25;100834.95;88397;1307;22062;-75
2022/10/16 08:50:01;;;;;;;12.50;8.60;;;;;;;20.03;61.12;100835.48;88498;1301;22055;-75
2022/10/16 08:52:13;;;;;;;10.00;8.90;;;;;;;20.03;61.06;100833.51;88743;1298;22734;-75
2022/10/16 08:54:29;;;;;;;11.80;9.30;;;;;;;20.09;61.43;100834.52;88733;1299;22312;-75
2022/10/16 08:56:38;;;;;;;10.50;9.50;;;;;;;20.19;61.65;100841.59;88737;1286;22844;-75
2022/10/16 08:58:47;;;;;;;13.20;9.80;;;;;;;20.25;60.86;100842.41;88632;1299;22710;-75
2022/10/16 09:00:58;;;;;;;10.60;9.20;;;;;;;20.26;60.81;100844.67;88496;1306;22045;-74
2022/10/16 09:03:17;;;;;;;9.60;8.70;;;;;;;20.29;61.04;100844.02;88494;1306;22841;-75
2022/10/16 09:05:38;;;;;;;10.20;8.80;;;;;;;20.35;61.02;100843.42;88600;1292;22181;-75
2022/10/16 09:07:50;;;;;;;12.10;9.90;;;;;;;20.42;60.90;100842.11;88512;1298;22088;-75
2022/10/16 09:10:10;;;;;;;11.20;9.70;;;;;;;20.50;60.56;100840.63;88725;1294;22065;-75
2022/10/16 09:12:21;;;;;;;9.40;8.50;;;;;;;20.70;60.59;100840.27;88750;1294;22040;-75
2022/10/16 09:14:46;;;;;;;11.50;8.50;;;;;;;21.34;61.59;100835.37;88739;1287;22136;-74
2022/10/16 09:16:57;;;;;;;11.10;8.90;;;;;;;21.99;60.17;100835.44;88751;1298;22091;-74
2022/10/16 09:19:10;;;;;;;10.50;8.40;;;;;;;22.37;58.70;100836.06;88608;1299;22073;-74
2022/10/16 09:21:22;;;;;;;8.70;7.90;;;;;;;22.65;58.28;100830.20;88507;1306;22081;-74
2022/10/16 09:23:32;;;;;;;12.10;7.40;;;;;;;22.85;56.79;100829.65;88499;1306;22605;-74
2022/10/16 09:25:39;;;;;;;;;;;;;;;22.86;55.61;100824.39;88508;1305;22142;-74
2022/10/16 09:27:50;;;;;;;11.10;7.90;;;;;;;22.75;55.29;100822.09;88492;1301;22074;-75
2022/10/16 09:29:59;;;;;;;9.30;8.20;;;;;;;22.65;55.31;100820.42;88388;1307;22103;-74
2022/10/16 09:32:15;;;;;;;8.70;7.10;;;;;;;22.58;55.31;100827.23;88508;1305;22803;-75
2022/10/16 09:34:28;;;;;;;10.70;7.70;;;;;;;22.47;55.50;100825.28;88616;1289;22534;-75
2022/10/16 09:36:41;;;;;;;8.80;7.70;;;;;;;22.41;55.29;100832.54;88762;1287;22026;-75
2022/10/16 09:38:53;;;;;;;9.30;7.90;;;;;;;22.27;55.29;100831.71;88478;1299;22091;-75
2022/10/16 09:41:11;;;;;;;9.20;7.90;;;;;;;22.16;55.50;100833.66;88744;1288;22625;-75
2022/10/16 09:43:27;;;;;;;9.20;8.30;;;;;;;22.04;56.03;100828.89;88630;1299;22080;-75
2022/10/16 09:45:36;;;;;;;10.20;8.20;;;;;;;21.93;55.93;100832.58;88763;1299;22705;-74
2022/10/16 09:47:45;;;;;;;9.10;7.70;;;;;;;21.87;56.24;100838.17;88756;1288;22082;-74
2022/10/16 09:50:01;;;;;;;15.10;8.30;;;;;;;21.84;56.59;100836.07;88500;1298;22060;-74
2022/10/16 09:52:14;;;;;;;11.00;8.00;;;;;;;21.79;56.75;100839.70;88514;1305;22059;-74
2022/10/16 09:54:23;;;;;;;11.00;7.90;;;;;;;21.76;56.58;100839.04;88739;1287;22125;-73